Time;durP1;ratioP1;P1;durP2;ratioP2;P2;SDS_P1;SDS_P2;PMS_P1;PMS_P2;Temp;Humidity;BMP_temperature;BMP_pressure;BME280_temperature;BME280_humidity;BME280_pressure;Samples;Min_cycle;Max_cycle;Signal;HPM_P1;HPM_P2
2023/07/25 00:00:48;;;;;;;13.65;8.80;;;;;;;;;;10570986;28;20556;-85
2023/07/25 00:05:49;;;;;;;13.23;8.23;;;;;;;;;;10571333;28;20031;-85
2023/07/25 00:10:50;;;;;;;14.40;8.48;;;;;;;;;;10570022;28;20036;-84
2023/07/25 00:15:51;;;;;;;21.55;10.55;;;;;;;;;;10570353;28;20026;-84
2023/07/25 00:20:52;;;;;;;13.27;8.75;;;;;;;;;;10538022;28;20389;-83
2023/07/25 00:25:53;;;;;;;15.73;8.88;;;;;;;;;;10556869;28;20074;-83
2023/07/25 00:30:54;;;;;;;16.63;9.43;;;;;;;;;;10550361;28;20029;-84
2023/07/25 00:35:55;;;;;;;17.25;10.63;;;;;;;;;;10561250;28;20023;-83
2023/07/25 00:40:56;;;;;;;20.23;11.55;;;;;;;;;;10569287;28;20027;-85
2023/07/25 00:45:57;;;;;;;15.85;9.75;;;;;;;;;;10566452;28;20580;-83
2023/07/25 00:50:58;;;;;;;15.35;9.82;;;;;;;;;;10569452;28;20042;-83
2023/07/25 00:56:01;;;;;;;16.35;10.55;;;;;;;;;;10568637;28;20038;-84
2023/07/25 01:01:06;;;;;;;17.98;10.27;;;;;;;;;;10569089;28;20035;-84
2023/07/25 01:06:10;;;;;;;16.15;10.52;;;;;;;;;;10567051;28;20421;-85
2023/07/25 01:11:11;;;;;;;23.20;11.65;;;;;;;;;;10568984;28;20024;-84
2023/07/25 01:16:14;;;;;;;18.00;11.05;;;;;;;;;;10569238;28;20034;-83
2023/07/25 01:21:15;;;;;;;17.48;11.52;;;;;;;;;;10568750;28;20051;-84
2023/07/25 01:26:16;;;;;;;16.85;11.10;;;;;;;;;;10558601;28;20048;-83
2023/07/25 01:31:17;;;;;;;19.40;11.43;;;;;;;;;;10568812;28;20027;-84
2023/07/25 01:36:18;;;;;;;18.67;11.68;;;;;;;;;;10566421;28;20047;-84
2023/07/25 01:41:19;;;;;;;18.27;11.18;;;;;;;;;;10565850;28;20031;-83
2023/07/25 01:46:20;;;;;;;24.15;13.30;;;;;;;;;;10566447;28;20024;-84
2023/07/25 01:51:21;;;;;;;24.65;13.15;;;;;;;;;;10568270;28;20398;-84
2023/07/25 01:56:22;;;;;;;23.30;14.30;;;;;;;;;;10572825;28;20032;-83
2023/07/25 02:01:23;;;;;;;26.42;15.32;;;;;;;;;;10575930;28;20475;-83
2023/07/25 02:06:24;;;;;;;25.08;15.18;;;;;;;;;;10573800;28;20023;-83
2023/07/25 02:11:25;;;;;;;27.58;15.55;;;;;;;;;;10575026;28;20035;-84
2023/07/25 02:16:26;;;;;;;27.77;15.88;;;;;;;;;;10574662;28;20031;-84
2023/07/25 02:21:27;;;;;;;27.75;16.70;;;;;;;;;;10575025;28;20103;-84
2023/07/25 02:26:28;;;;;;;29.85;15.57;;;;;;;;;;10566124;28;20108;-84
2023/07/25 02:31:30;;;;;;;23.02;13.80;;;;;;;;;;10574113;28;20019;-83
2023/07/25 02:36:30;;;;;;;23.45;14.52;;;;;;;;;;10561153;28;20022;-84
2023/07/25 02:41:31;;;;;;;28.08;14.90;;;;;;;;;;10574157;28;20471;-84
2023/07/25 02:46:32;;;;;;;26.92;16.13;;;;;;;;;;10574385;28;20019;-83
2023/07/25 02:51:33;;;;;;;27.98;16.95;;;;;;;;;;10574870;28;20031;-83
2023/07/25 02:56:34;;;;;;;25.42;14.57;;;;;;;;;;10574483;28;20470;-83
2023/07/25 03:01:35;;;;;;;23.95;14.93;;;;;;;;;;10571136;28;20036;-84
2023/07/25 03:06:36;;;;;;;23.30;14.18;;;;;;;;;;10546398;28;20027;-84
2023/07/25 03:11:37;;;;;;;23.73;13.98;;;;;;;;;;10571184;28;20102;-83
2023/07/25 03:16:38;;;;;;;27.73;15.15;;;;;;;;;;10535564;28;20027;-84
2023/07/25 03:21:39;;;;;;;25.15;13.98;;;;;;;;;;10572423;28;20494;-83
2023/07/25 03:26:40;;;;;;;23.52;12.98;;;;;;;;;;10563053;28;20044;-83
2023/07/25 03:31:41;;;;;;;26.20;14.57;;;;;;;;;;10571746;28;20028;-85
2023/07/25 03:36:42;;;;;;;21.35;13.60;;;;;;;;;;10558888;28;20054;-83
2023/07/25 03:41:43;;;;;;;21.95;12.77;;;;;;;;;;10572155;28;20039;-84
2023/07/25 03:46:45;;;;;;;22.15;14.23;;;;;;;;;;10569362;28;20035;-84
2023/07/25 03:51:46;;;;;;;21.08;13.32;;;;;;;;;;10557966;28;20040;-85
2023/07/25 03:56:47;;;;;;;23.02;13.60;;;;;;;;;;10551299;28;20439;-85
2023/07/25 04:01:48;;;;;;;21.38;13.35;;;;;;;;;;10551443;28;20073;-83
2023/07/25 04:06:49;;;;;;;21.90;13.23;;;;;;;;;;10556845;28;20043;-85
2023/07/25 04:11:50;;;;;;;21.98;12.57;;;;;;;;;;10554491;28;20027;-86
2023/07/25 04:16:51;;;;;;;21.35;12.30;;;;;;;;;;10566696;28;20053;-84
2023/07/25 04:21:52;;;;;;;25.42;13.43;;;;;;;;;;10569679;28;20530;-85
2023/07/25 04:26:53;;;;;;;22.75;13.38;;;;;;;;;;10550774;28;20055;-84
2023/07/25 04:31:54;;;;;;;21.63;14.00;;;;;;;;;;10548845;28;20042;-84
2023/07/25 04:36:55;;;;;;;22.98;13.75;;;;;;;;;;10568707;28;20102;-84
2023/07/25 04:41:56;;;;;;;21.88;13.32;;;;;;;;;;10569812;28;20085;-84
2023/07/25 04:46:57;;;;;;;22.50;13.00;;;;;;;;;;10569307;28;20372;-84
2023/07/25 04:51:58;;;;;;;22.23;11.93;;;;;;;;;;10569308;28;20028;-84
2023/07/25 04:56:59;;;;;;;24.10;13.15;;;;;;;;;;10569027;28;20027;-84
2023/07/25 05:02:00;;;;;;;20.55;12.38;;;;;;;;;;10555045;28;20036;-84
2023/07/25 05:07:01;;;;;;;22.02;12.45;;;;;;;;;;10569161;28;20039;-84
2023/07/25 05:12:04;;;;;;;19.60;12.52;;;;;;;;;;10568314;28;20034;-84
2023/07/25 05:17:05;;;;;;;20.30;12.00;;;;;;;;;;10568420;28;20051;-85
2023/07/25 05:22:06;;;;;;;14.98;9.45;;;;;;;;;;10567013;28;20192;-85
2023/07/25 05:27:07;;;;;;;13.77;9.20;;;;;;;;;;10566359;28;20045;-85
2023/07/25 05:32:08;;;;;;;17.02;9.30;;;;;;;;;;10576120;28;20023;-86
2023/07/25 05:37:09;;;;;;;16.70;9.10;;;;;;;;;;10575955;28;20031;-85
2023/07/25 05:42:10;;;;;;;14.43;8.52;;;;;;;;;;10577029;28;20155;-85
2023/07/25 05:47:11;;;;;;;13.88;7.55;;;;;;;;;;10576794;28;20027;-86
2023/07/25 05:52:12;;;;;;;12.63;7.40;;;;;;;;;;10576836;28;20077;-85
2023/07/25 05:57:13;;;;;;;11.77;7.57;;;;;;;;;;10574908;28;20039;-85
2023/07/25 06:02:16;;;;;;;13.23;7.65;;;;;;;;;;10576445;28;20386;-85
2023/07/25 06:07:17;;;;;;;13.75;7.97;;;;;;;;;;10573969;28;20050;-85
2023/07/25 06:12:18;;;;;;;12.43;7.35;;;;;;;;;;10574800;28;20023;-84
2023/07/25 06:17:19;;;;;;;10.75;6.40;;;;;;;;;;10575733;28;20640;-85
2023/07/25 06:22:20;;;;;;;10.88;7.25;;;;;;;;;;10574573;28;20044;-85
2023/07/25 06:27:21;;;;;;;11.98;6.55;;;;;;;;;;10575080;28;20027;-85
2023/07/25 06:32:22;;;;;;;11.13;6.38;;;;;;;;;;10573263;28;20028;-86
2023/07/25 06:37:23;;;;;;;13.98;6.78;;;;;;;;;;10575522;28;20035;-85
2023/07/25 06:42:24;;;;;;;10.57;6.32;;;;;;;;;;10564338;28;20058;-85
2023/07/25 06:47:25;;;;;;;10.70;5.97;;;;;;;;;;10536187;28;20016;-85
2023/07/25 06:52:26;;;;;;;7.80;5.35;;;;;;;;;;10573700;28;20028;-86
2023/07/25 06:57:28;;;;;;;10.40;5.45;;;;;;;;;;10572998;28;20023;-86
2023/07/25 07:02:29;;;;;;;10.40;6.10;;;;;;;;;;10573877;28;20744;-86
2023/07/25 07:07:30;;;;;;;9.25;5.30;;;;;;;;;;10573765;28;20103;-85
2023/07/25 07:12:31;;;;;;;8.57;5.75;;;;;;;;;;10572977;28;20409;-86
2023/07/25 07:17:32;;;;;;;9.98;5.13;;;;;;;;;;10572391;28;20028;-86
2023/07/25 07:22:33;;;;;;;8.88;5.10;;;;;;;;;;10571003;28;20070;-86
2023/07/25 07:27:34;;;;;;;9.00;5.28;;;;;;;;;;10572454;28;20027;-85
2023/07/25 07:32:35;;;;;;;9.40;5.65;;;;;;;;;;10573435;28;20036;-86
2023/07/25 07:37:37;;;;;;;6.60;5.03;;;;;;;;;;10571736;28;20043;-86
2023/07/25 07:42:38;;;;;;;7.30;5.10;;;;;;;;;;10571511;28;20028;-86
2023/07/25 07:47:39;;;;;;;8.77;5.30;;;;;;;;;;10572161;28;20411;-86
2023/07/25 07:52:41;;;;;;;6.63;4.65;;;;;;;;;;10563882;28;20403;-87
2023/07/25 07:57:43;;;;;;;8.40;5.15;;;;;;;;;;10563559;28;20030;-86
2023/07/25 08:02:44;;;;;;;9.43;5.05;;;;;;;;;;10569265;28;20090;-87
2023/07/25 08:07:46;;;;;;;7.60;5.10;;;;;;;;;;10572010;28;20016;-85
2023/07/25 08:12:47;;;;;;;10.07;5.40;;;;;;;;;;10570482;28;20097;-86
2023/07/25 08:17:48;;;;;;;9.30;5.10;;;;;;;;;;10570611;28;20110;-86
2023/07/25 08:22:49;;;;;;;9.20;5.38;;;;;;;;;;10570407;28;20439;-86
2023/07/25 08:27:50;;;;;;;7.85;5.68;;;;;;;;;;10570547;28;20015;-86
2023/07/25 08:32:51;;;;;;;9.15;5.35;;;;;;;;;;10569630;28;20032;-85
2023/07/25 08:37:52;;;;;;;9.15;5.63;;;;;;;;;;10570128;28;20032;-86
2023/07/25 08:42:55;;;;;;;9.80;6.00;;;;;;;;;;10569171;28;20043;-86
2023/07/25 08:47:58;;;;;;;8.17;5.37;;;;;;;;;;10568569;28;20123;-86
2023/07/25 08:53:01;;;;;;;11.02;6.10;;;;;;;;;;10570254;28;20035;-86
2023/07/25 08:58:02;;;;;;;8.35;4.93;;;;;;;;;;10569024;28;20027;-86
2023/07/25 09:03:03;;;;;;;7.40;5.15;;;;;;;;;;10568456;28;20399;-86
2023/07/25 09:08:04;;;;;;;9.15;5.63;;;;;;;;;;10569961;28;20108;-86
2023/07/25 09:13:05;;;;;;;7.60;5.15;;;;;;;;;;10568658;28;20399;-86
2023/07/25 09:18:06;;;;;;;7.35;4.70;;;;;;;;;;10569295;28;20076;-85
2023/07/25 09:23:07;;;;;;;6.70;4.90;;;;;;;;;;10567834;28;20456;-85
2023/07/25 09:28:08;;;;;;;6.13;4.57;;;;;;;;;;10566028;28;20096;-86
2023/07/25 09:33:09;;;;;;;6.93;5.00;;;;;;;;;;10568702;28;20035;-86
2023/07/25 09:38:11;;;;;;;7.95;5.68;;;;;;;;;;10569439;28;20080;-85
2023/07/25 09:43:41;;;;;;;6.78;4.93;;;;;;;;;;10555178;28;20040;-86
2023/07/25 09:48:48;;;;;;;7.53;5.40;;;;;;;;;;10554335;28;20116;-86
2023/07/25 09:53:52;;;;;;;8.02;5.32;;;;;;;;;;10567949;28;20019;-86
2023/07/25 09:58:54;;;;;;;10.02;5.25;;;;;;;;;;10567989;28;20085;-86
2023/07/25 10:03:55;;;;;;;8.00;5.05;;;;;;;;;;10568094;28;20030;-85
2023/07/25 10:08:57;;;;;;;7.45;4.75;;;;;;;;;;10567230;28;20027;-86
2023/07/25 10:13:58;;;;;;;6.97;4.60;;;;;;;;;;10568079;28;20106;-86
2023/07/25 10:18:59;;;;;;;9.23;5.45;;;;;;;;;;10574913;28;20428;-85
2023/07/25 10:24:00;;;;;;;13.07;5.82;;;;;;;;;;10573842;28;20446;-85
2023/07/25 10:29:02;;;;;;;10.35;5.53;;;;;;;;;;10575605;28;20518;-86
2023/07/25 10:34:04;;;;;;;6.03;4.65;;;;;;;;;;10574228;28;20186;-87
2023/07/25 10:39:09;;;;;;;6.82;4.88;;;;;;;;;;10572679;28;20498;-86
2023/07/25 10:44:10;;;;;;;7.45;5.60;;;;;;;;;;10574664;28;20763;-86
2023/07/25 10:49:15;;;;;;;10.13;5.63;;;;;;;;;;10574666;28;20021;-86
2023/07/25 10:54:17;;;;;;;6.45;5.57;;;;;;;;;;10574264;28;20043;-86
2023/07/25 10:59:18;;;;;;;8.00;5.53;;;;;;;;;;10574173;28;20028;-85
2023/07/25 11:04:22;;;;;;;10.63;5.97;;;;;;;;;;10573617;28;20106;-85
2023/07/25 11:09:24;;;;;;;9.40;6.53;;;;;;;;;;10574061;28;20024;-86
2023/07/25 11:14:25;;;;;;;9.23;6.63;;;;;;;;;;10572804;28;20038;-86
2023/07/25 11:19:26;;;;;;;10.23;6.32;;;;;;;;;;10573017;28;20675;-86
2023/07/25 11:24:27;;;;;;;10.45;6.75;;;;;;;;;;10570574;28;20059;-84
2023/07/25 11:29:28;;;;;;;10.57;6.47;;;;;;;;;;10570446;28;20421;-86
2023/07/25 11:34:29;;;;;;;9.23;5.30;;;;;;;;;;10572140;28;20035;-87
2023/07/25 11:39:30;;;;;;;7.57;5.30;;;;;;;;;;10570866;28;20089;-86
2023/07/25 11:44:33;;;;;;;7.15;5.05;;;;;;;;;;10571508;28;20028;-85
2023/07/25 11:49:34;;;;;;;7.68;4.80;;;;;;;;;;10571770;28;20024;-86
2023/07/25 11:54:35;;;;;;;6.60;4.35;;;;;;;;;;10569623;28;20032;-86
2023/07/25 11:59:40;;;;;;;8.20;5.32;;;;;;;;;;10571332;28;20032;-86
2023/07/25 12:04:42;;;;;;;7.55;5.20;;;;;;;;;;10571537;28;20020;-85
2023/07/25 12:09:51;;;;;;;6.78;5.18;;;;;;;;;;10570803;28;20115;-85
2023/07/25 12:15:02;;;;;;;8.05;5.65;;;;;;;;;;10570290;28;20023;-84
2023/07/25 12:20:12;;;;;;;6.60;5.15;;;;;;;;;;10571469;28;20168;-86
2023/07/25 12:25:17;;;;;;;11.93;6.57;;;;;;;;;;10569577;28;20093;-85
2023/07/25 12:30:18;;;;;;;;;;;;;;;;;;10570732;28;20068;-85
2023/07/25 12:35:19;;;;;;;8.80;5.57;;;;;;;;;;10569958;27;19908;-85
2023/07/25 12:40:20;;;;;;;10.75;5.82;;;;;;;;;;10569074;28;20039;-85
2023/07/25 12:45:21;;;;;;;7.75;5.55;;;;;;;;;;10569971;28;20038;-86
2023/07/25 12:50:22;;;;;;;9.23;5.70;;;;;;;;;;10570152;28;20034;-85
2023/07/25 12:55:23;;;;;;;9.02;6.00;;;;;;;;;;10569099;28;20246;-86
2023/07/25 13:00:24;;;;;;;9.15;6.05;;;;;;;;;;10568895;28;20451;-87
2023/07/25 13:05:27;;;;;;;9.32;6.13;;;;;;;;;;10569811;28;20093;-86
2023/07/25 13:10:29;;;;;;;10.93;6.82;;;;;;;;;;10568788;28;20015;-86
2023/07/25 13:15:30;;;;;;;8.43;6.70;;;;;;;;;;10568031;28;20020;-86
2023/07/25 13:20:31;;;;;;;10.82;6.90;;;;;;;;;;10568872;28;20031;-87
2023/07/25 13:25:32;;;;;;;10.68;5.95;;;;;;;;;;10559596;28;20048;-86
2023/07/25 13:30:33;;;;;;;9.07;6.25;;;;;;;;;;10545532;28;20034;-88
2023/07/25 13:35:34;;;;;;;10.88;6.10;;;;;;;;;;10568485;28;20688;-88
2023/07/25 13:40:35;;;;;;;7.45;5.68;;;;;;;;;;10541318;28;20124;-88
2023/07/25 13:45:36;;;;;;;8.05;5.93;;;;;;;;;;10524515;28;20088;-87
2023/07/25 13:50:37;;;;;;;6.57;5.47;;;;;;;;;;10527882;28;20096;-86
2023/07/25 13:55:39;;;;;;;8.95;6.88;;;;;;;;;;10521178;28;20039;-86
2023/07/25 14:00:40;;;;;;;10.88;6.82;;;;;;;;;;10533997;28;20042;-87
2023/07/25 14:05:41;;;;;;;8.02;6.25;;;;;;;;;;10532093;28;20476;-86
2023/07/25 14:10:42;;;;;;;10.80;7.25;;;;;;;;;;10533953;28;20042;-85
2023/07/25 14:15:43;;;;;;;8.15;6.20;;;;;;;;;;10532538;28;20117;-86
2023/07/25 14:20:44;;;;;;;8.82;7.10;;;;;;;;;;10533441;28;20310;-86
2023/07/25 14:25:45;;;;;;;9.57;7.05;;;;;;;;;;10532001;28;20059;-86
2023/07/25 14:30:46;;;;;;;9.88;7.70;;;;;;;;;;10534579;28;20107;-85
2023/07/25 14:35:50;;;;;;;11.30;7.82;;;;;;;;;;10567889;28;20028;-85
2023/07/25 14:40:51;;;;;;;12.38;9.60;;;;;;;;;;10549397;28;20039;-86
2023/07/25 14:45:54;;;;;;;14.93;11.13;;;;;;;;;;10540981;28;20067;-85
2023/07/25 14:50:55;;;;;;;16.98;11.63;;;;;;;;;;10556341;28;20027;-85
2023/07/25 14:55:56;;;;;;;17.63;11.20;;;;;;;;;;10553879;28;20019;-85
2023/07/25 15:00:57;;;;;;;14.48;10.20;;;;;;;;;;10529674;28;20151;-84
2023/07/25 15:05:59;;;;;;;18.05;11.45;;;;;;;;;;10530742;28;20024;-85
2023/07/25 15:11:00;;;;;;;16.33;11.20;;;;;;;;;;10530881;28;20111;-84
2023/07/25 15:16:01;;;;;;;15.23;10.57;;;;;;;;;;10530115;28;20555;-84
2023/07/25 15:21:02;;;;;;;14.90;8.70;;;;;;;;;;10527664;28;20048;-84
2023/07/25 15:26:03;;;;;;;13.23;8.60;;;;;;;;;;10527074;28;20492;-85
2023/07/25 15:31:04;;;;;;;9.77;7.03;;;;;;;;;;10550840;28;20023;-86
2023/07/25 15:36:06;;;;;;;9.90;7.25;;;;;;;;;;10572831;28;20026;-86
2023/07/25 15:41:07;;;;;;;8.63;6.15;;;;;;;;;;10554016;28;20806;-86
2023/07/25 15:46:08;;;;;;;7.63;5.35;;;;;;;;;;10568587;28;20176;-87
2023/07/25 15:51:09;;;;;;;11.57;8.57;;;;;;;;;;10569729;28;20022;-86
2023/07/25 15:56:10;;;;;;;15.10;9.60;;;;;;;;;;10564944;28;20429;-87
2023/07/25 16:01:11;;;;;;;12.52;8.27;;;;;;;;;;10555185;28;20045;-86
2023/07/25 16:06:13;;;;;;;15.35;9.77;;;;;;;;;;10566877;28;20046;-86
2023/07/25 16:11:14;;;;;;;18.17;10.25;;;;;;;;;;10556330;28;20040;-88
2023/07/25 16:16:18;;;;;;;13.18;8.07;;;;;;;;;;10531462;28;20479;-87
2023/07/25 16:21:19;;;;;;;13.27;9.00;;;;;;;;;;10515994;28;20100;-86
2023/07/25 16:26:20;;;;;;;11.00;7.50;;;;;;;;;;10547299;28;20075;-86
2023/07/25 16:31:21;;;;;;;11.98;7.72;;;;;;;;;;10569420;28;20168;-87
2023/07/25 16:36:22;;;;;;;13.77;8.15;;;;;;;;;;10557456;28;20012;-86
2023/07/25 16:41:23;;;;;;;13.70;8.90;;;;;;;;;;10556380;28;20126;-86
2023/07/25 16:46:24;;;;;;;13.52;9.07;;;;;;;;;;10538966;28;20038;-85
2023/07/25 16:51:26;;;;;;;12.82;9.18;;;;;;;;;;10563068;28;20106;-85
2023/07/25 16:56:27;;;;;;;13.25;9.23;;;;;;;;;;10562865;28;20495;-84
2023/07/25 17:01:28;;;;;;;11.68;8.75;;;;;;;;;;10564493;28;20036;-86
2023/07/25 17:06:29;;;;;;;16.02;8.80;;;;;;;;;;10542076;28;20036;-83
2023/07/25 17:11:30;;;;;;;13.30;9.52;;;;;;;;;;10528730;28;20024;-84
2023/07/25 17:16:31;;;;;;;15.85;10.75;;;;;;;;;;10531590;28;20115;-85
2023/07/25 17:21:34;;;;;;;10.98;7.93;;;;;;;;;;10569561;28;20067;-84
2023/07/25 17:26:35;;;;;;;12.25;8.48;;;;;;;;;;10540225;28;20047;-85
2023/07/25 17:31:36;;;;;;;11.68;8.80;;;;;;;;;;10576069;28;20724;-85
2023/07/25 17:36:37;;;;;;;12.25;9.52;;;;;;;;;;10577218;28;20086;-85
2023/07/25 17:41:38;;;;;;;10.10;7.43;;;;;;;;;;10533938;28;20051;-84
2023/07/25 17:46:39;;;;;;;10.57;8.18;;;;;;;;;;10533192;28;20070;-83
2023/07/25 17:51:40;;;;;;;16.48;11.65;;;;;;;;;;10534665;28;20057;-85
2023/07/25 17:56:41;;;;;;;14.57;10.52;;;;;;;;;;10534042;28;20032;-83
2023/07/25 18:01:42;;;;;;;17.92;10.50;;;;;;;;;;10534144;28;20061;-85
2023/07/25 18:06:43;;;;;;;16.75;11.50;;;;;;;;;;10530862;28;20540;-85
2023/07/25 18:11:44;;;;;;;12.07;9.13;;;;;;;;;;10532423;28;20070;-85
2023/07/25 18:16:45;;;;;;;11.68;8.95;;;;;;;;;;10531446;28;20028;-85
2023/07/25 18:21:46;;;;;;;11.98;7.88;;;;;;;;;;10531184;28;20043;-84
2023/07/25 18:26:48;;;;;;;12.25;8.30;;;;;;;;;;10531960;28;20044;-83
2023/07/25 18:31:49;;;;;;;12.27;8.73;;;;;;;;;;10530266;28;20104;-83
2023/07/25 18:36:50;;;;;;;16.67;10.18;;;;;;;;;;10530955;28;20028;-85
2023/07/25 18:41:51;;;;;;;12.80;8.45;;;;;;;;;;10530174;28;20104;-85
2023/07/25 18:46:52;;;;;;;12.38;9.20;;;;;;;;;;10527796;28;20123;-84
2023/07/25 18:51:53;;;;;;;35.40;15.13;;;;;;;;;;10529275;28;20042;-84
2023/07/25 18:56:54;;;;;;;18.23;11.48;;;;;;;;;;10527325;28;20605;-83
2023/07/25 19:01:55;;;;;;;19.38;12.57;;;;;;;;;;10531654;28;20042;-83
2023/07/25 19:06:56;;;;;;;18.48;11.95;;;;;;;;;;10536220;28;20023;-84
2023/07/25 19:11:57;;;;;;;33.17;16.80;;;;;;;;;;10535337;28;20032;-83
2023/07/25 19:16:58;;;;;;;39.10;18.17;;;;;;;;;;10532320;28;20036;-85
2023/07/25 19:22:00;;;;;;;27.48;16.60;;;;;;;;;;10552472;28;20043;-83
2023/07/25 19:27:01;;;;;;;28.30;16.00;;;;;;;;;;10530408;28;20059;-85
2023/07/25 19:32:02;;;;;;;27.30;17.15;;;;;;;;;;10567032;28;20035;-84
2023/07/25 19:37:04;;;;;;;25.13;17.05;;;;;;;;;;10564745;28;20032;-84
2023/07/25 19:42:05;;;;;;;23.40;14.32;;;;;;;;;;10571919;28;20039;-84
2023/07/25 19:47:06;;;;;;;20.65;14.90;;;;;;;;;;10554520;28;20032;-84
2023/07/25 19:52:08;;;;;;;21.40;14.88;;;;;;;;;;10563358;28;20386;-84
2023/07/25 19:57:09;;;;;;;24.15;17.67;;;;;;;;;;10570099;28;20536;-84
2023/07/25 20:02:10;;;;;;;31.30;20.13;;;;;;;;;;10570383;28;20092;-84
2023/07/25 20:07:11;;;;;;;26.40;18.77;;;;;;;;;;10552668;28;20051;-83
2023/07/25 20:12:12;;;;;;;24.15;17.40;;;;;;;;;;10561059;28;20114;-84
2023/07/25 20:17:13;;;;;;;30.35;18.00;;;;;;;;;;10570614;28;20031;-84
2023/07/25 20:22:14;;;;;;;32.83;17.85;;;;;;;;;;10551916;28;20044;-84
2023/07/25 20:27:16;;;;;;;33.83;18.08;;;;;;;;;;10564086;28;20037;-84
2023/07/25 20:32:17;;;;;;;38.72;20.45;;;;;;;;;;10569863;28;20024;-84
2023/07/25 20:37:18;;;;;;;28.73;17.20;;;;;;;;;;10562071;28;20042;-84
2023/07/25 20:42:19;;;;;;;64.38;24.90;;;;;;;;;;10561995;28;20040;-85
2023/07/25 20:47:20;;;;;;;22.70;15.30;;;;;;;;;;10570001;28;20092;-84
2023/07/25 20:52:21;;;;;;;57.10;25.38;;;;;;;;;;10544082;28;20108;-84
2023/07/25 20:57:22;;;;;;;57.95;27.83;;;;;;;;;;10569405;28;20106;-83
2023/07/25 21:02:23;;;;;;;39.58;23.77;;;;;;;;;;10568605;28;20033;-84
2023/07/25 21:07:24;;;;;;;50.65;26.05;;;;;;;;;;10560000;28;20494;-85
2023/07/25 21:12:25;;;;;;;49.88;26.10;;;;;;;;;;10567944;28;20028;-84
2023/07/25 21:17:26;;;;;;;31.10;21.05;;;;;;;;;;10568704;28;20028;-84
2023/07/25 21:22:27;;;;;;;39.53;23.98;;;;;;;;;;10534513;28;20121;-84
2023/07/25 21:27:28;;;;;;;40.97;26.02;;;;;;;;;;10552112;28;20085;-84
2023/07/25 21:32:29;;;;;;;35.13;23.73;;;;;;;;;;10548026;28;20633;-82
2023/07/25 21:37:30;;;;;;;40.50;25.95;;;;;;;;;;10555504;28;20040;-83
2023/07/25 21:42:31;;;;;;;42.63;27.00;;;;;;;;;;10568163;28;20040;-84
2023/07/25 21:47:32;;;;;;;47.08;29.52;;;;;;;;;;10568020;28;20092;-85
2023/07/25 21:52:33;;;;;;;51.55;31.02;;;;;;;;;;10554823;28;20064;-84
2023/07/25 21:57:34;;;;;;;43.90;27.77;;;;;;;;;;10568224;28;20028;-83
2023/07/25 22:02:35;;;;;;;42.20;26.25;;;;;;;;;;10560438;28;20048;-84
2023/07/25 22:07:38;;;;;;;43.92;27.45;;;;;;;;;;10565993;28;20432;-84
2023/07/25 22:12:41;;;;;;;49.53;29.90;;;;;;;;;;10559019;28;20031;-84
2023/07/25 22:17:42;;;;;;;52.97;29.23;;;;;;;;;;10574109;28;20027;-84
2023/07/25 22:22:43;;;;;;;42.70;27.63;;;;;;;;;;10564374;28;20063;-85
2023/07/25 22:27:44;;;;;;;38.03;26.45;;;;;;;;;;10575696;28;20088;-85
2023/07/25 22:32:46;;;;;;;69.57;33.70;;;;;;;;;;10575115;28;20066;-84
2023/07/25 22:38:16;;;;;;;55.90;31.20;;;;;;;;;;10564647;28;20032;-84
2023/07/25 22:43:17;;;;;;;61.75;35.38;;;;;;;;;;10556780;28;20571;-84
2023/07/25 22:48:18;;;;;;;79.88;36.33;;;;;;;;;;10565778;28;20042;-84
2023/07/25 22:53:19;;;;;;;65.53;34.20;;;;;;;;;;10555613;28;20080;-84
2023/07/25 22:58:20;;;;;;;98.32;40.15;;;;;;;;;;10574095;28;20531;-83
2023/07/25 23:03:21;;;;;;;60.75;34.67;;;;;;;;;;10573612;28;20510;-84
2023/07/25 23:08:22;;;;;;;41.53;27.58;;;;;;;;;;10558784;28;20032;-84
2023/07/25 23:13:23;;;;;;;88.10;36.83;;;;;;;;;;10571815;28;20235;-84
2023/07/25 23:18:24;;;;;;;94.80;39.78;;;;;;;;;;10563416;28;20111;-84
2023/07/25 23:23:25;;;;;;;47.15;28.35;;;;;;;;;;10549485;28;20047;-85
2023/07/25 23:28:26;;;;;;;60.10;36.08;;;;;;;;;;10565463;28;20208;-83
2023/07/25 23:33:27;;;;;;;48.28;29.58;;;;;;;;;;10561810;28;20193;-84
2023/07/25 23:38:28;;;;;;;88.70;36.38;;;;;;;;;;10548793;28;20028;-83
2023/07/25 23:43:29;;;;;;;52.88;30.20;;;;;;;;;;10558415;28;20032;-83
2023/07/25 23:48:30;;;;;;;51.85;29.17;;;;;;;;;;10566404;28;20031;-84
2023/07/25 23:53:31;;;;;;;77.07;36.45;;;;;;;;;;10570649;28;20035;-83
2023/07/25 23:58:32;;;;;;;83.07;39.75;;;;;;;;;;10558028;28;20130;-83
